Adona, Arkansas
Current Conditions -  °F | °C
As of 1:53 AM on Monday 24 Nov 2014 (Local Time) from KRUE Reporting Station
Overcast Overcast  
Wind Chill: 50°   Ceiling: 7000
Heat Index: 50°   Visibility: 10mi
Dew Point: 41°   Wind: 16mph
Humidity: 71%   Direction: 300°WNW
Pressure: 29.59"   Gusts: 25mph
Location:  35.04°N, 92.9°W
Report Text: KRUE 240753Z AUTO 30014G22KT 10SM SCT040 OVC070 10/05 A2959 RMK AO2 PK WND 28026/0712 SLP015 T01000050
Loading
Personal Weather Stations






























Interactive Weather Map New forecast layout! Learn more

10-Day Weather Forecast

Advertisements
Track Severe Weather on mobile